sensor_id;sensor_type;location;lat;lon;timestamp;temperature;humidity
71672;DHT22;67659;45.554;11.812;2023-02-21T00:01:34;9.80;92.70
71672;DHT22;67659;45.554;11.812;2023-02-21T00:04:18;9.90;92.80
71672;DHT22;67659;45.554;11.812;2023-02-21T00:07:02;9.80;93.50
71672;DHT22;67659;45.554;11.812;2023-02-21T00:09:46;9.80;92.90
71672;DHT22;67659;45.554;11.812;2023-02-21T00:12:31;9.70;92.80
71672;DHT22;67659;45.554;11.812;2023-02-21T00:15:15;9.70;93.20
71672;DHT22;67659;45.554;11.812;2023-02-21T00:17:59;9.60;92.80
71672;DHT22;67659;45.554;11.812;2023-02-21T00:20:43;9.70;93.20
71672;DHT22;67659;45.554;11.812;2023-02-21T00:23:27;9.70;93.10
71672;DHT22;67659;45.554;11.812;2023-02-21T00:26:17;9.70;92.90
71672;DHT22;67659;45.554;11.812;2023-02-21T00:29:01;9.70;93.00
71672;DHT22;67659;45.554;11.812;2023-02-21T00:31:45;9.70;93.20
71672;DHT22;67659;45.554;11.812;2023-02-21T00:34:30;9.70;93.20
71672;DHT22;67659;45.554;11.812;2023-02-21T00:37:14;9.70;93.50
71672;DHT22;67659;45.554;11.812;2023-02-21T00:39:58;9.70;93.50
71672;DHT22;67659;45.554;11.812;2023-02-21T00:42:42;9.70;93.70
71672;DHT22;67659;45.554;11.812;2023-02-21T00:45:26;9.70;93.60
71672;DHT22;67659;45.554;11.812;2023-02-21T00:48:10;9.70;93.20
71672;DHT22;67659;45.554;11.812;2023-02-21T00:50:54;9.70;92.50
71672;DHT22;67659;45.554;11.812;2023-02-21T00:53:38;9.70;92.40
71672;DHT22;67659;45.554;11.812;2023-02-21T00:56:23;9.60;92.30
71672;DHT22;67659;45.554;11.812;2023-02-21T00:59:07;9.50;92.90
71672;DHT22;67659;45.554;11.812;2023-02-21T01:01:51;9.50;92.70
71672;DHT22;67659;45.554;11.812;2023-02-21T01:04:35;9.60;92.60
71672;DHT22;67659;45.554;11.812;2023-02-21T01:07:19;9.40;93.60
71672;DHT22;67659;45.554;11.812;2023-02-21T01:10:03;9.50;94.00
71672;DHT22;67659;45.554;11.812;2023-02-21T01:12:47;9.60;93.30
71672;DHT22;67659;45.554;11.812;2023-02-21T01:15:31;9.60;93.90
71672;DHT22;67659;45.554;11.812;2023-02-21T01:18:15;9.60;94.30
71672;DHT22;67659;45.554;11.812;2023-02-21T01:20:59;9.50;94.10
71672;DHT22;67659;45.554;11.812;2023-02-21T01:23:44;9.50;95.20
71672;DHT22;67659;45.554;11.812;2023-02-21T01:26:28;9.40;95.00
71672;DHT22;67659;45.554;11.812;2023-02-21T01:29:12;9.50;95.20
71672;DHT22;67659;45.554;11.812;2023-02-21T01:31:56;9.40;95.50
71672;DHT22;67659;45.554;11.812;2023-02-21T01:34:40;9.30;95.60
71672;DHT22;67659;45.554;11.812;2023-02-21T01:37:24;9.20;96.10
71672;DHT22;67659;45.554;11.812;2023-02-21T01:40:13;8.80;95.80
71672;DHT22;67659;45.554;11.812;2023-02-21T01:42:57;8.70;96.40
71672;DHT22;67659;45.554;11.812;2023-02-21T01:45:46;8.70;96.40
71672;DHT22;67659;45.554;11.812;2023-02-21T01:48:32;8.70;95.90
71672;DHT22;67659;45.554;11.812;2023-02-21T01:51:19;8.80;95.40
71672;DHT22;67659;45.554;11.812;2023-02-21T01:54:05;8.80;95.80
71672;DHT22;67659;45.554;11.812;2023-02-21T01:56:52;8.80;95.70
71672;DHT22;67659;45.554;11.812;2023-02-21T01:59:37;9.00;95.90
71672;DHT22;67659;45.554;11.812;2023-02-21T02:05:36;9.20;96.50
71672;DHT22;67659;45.554;11.812;2023-02-21T02:08:26;9.00;96.40
71672;DHT22;67659;45.554;11.812;2023-02-21T02:23:28;8.80;96.10
71672;DHT22;67659;45.554;11.812;2023-02-21T02:29:18;8.80;95.40
71672;DHT22;67659;45.554;11.812;2023-02-21T02:32:11;8.80;95.80
71672;DHT22;67659;45.554;11.812;2023-02-21T02:37:57;8.40;96.60
71672;DHT22;67659;45.554;11.812;2023-02-21T02:43:32;8.40;96.20
71672;DHT22;67659;45.554;11.812;2023-02-21T02:48:42;8.30;95.50
71672;DHT22;67659;45.554;11.812;2023-02-21T02:51:11;8.40;95.30
71672;DHT22;67659;45.554;11.812;2023-02-21T02:53:38;8.40;95.10
71672;DHT22;67659;45.554;11.812;2023-02-21T02:56:07;8.40;94.60
71672;DHT22;67659;45.554;11.812;2023-02-21T02:59:01;8.20;94.50
71672;DHT22;67659;45.554;11.812;2023-02-21T03:04:48;8.20;94.20
71672;DHT22;67659;45.554;11.812;2023-02-21T03:20:39;8.00;93.90
71672;DHT22;67659;45.554;11.812;2023-02-21T03:23:08;8.00;95.40
71672;DHT22;67659;45.554;11.812;2023-02-21T03:25:36;8.00;95.80
71672;DHT22;67659;45.554;11.812;2023-02-21T03:28:04;7.90;95.10
71672;DHT22;67659;45.554;11.812;2023-02-21T03:30:30;7.90;96.30
71672;DHT22;67659;45.554;11.812;2023-02-21T03:32:56;7.90;95.90
71672;DHT22;67659;45.554;11.812;2023-02-21T03:35:23;7.90;96.50
71672;DHT22;67659;45.554;11.812;2023-02-21T03:37:54;7.80;96.30
71672;DHT22;67659;45.554;11.812;2023-02-21T03:40:26;7.90;95.90
71672;DHT22;67659;45.554;11.812;2023-02-21T03:42:54;7.90;96.00
71672;DHT22;67659;45.554;11.812;2023-02-21T03:45:20;8.00;95.90
71672;DHT22;67659;45.554;11.812;2023-02-21T03:47:45;7.90;96.20
71672;DHT22;67659;45.554;11.812;2023-02-21T03:50:11;7.80;96.50
71672;DHT22;67659;45.554;11.812;2023-02-21T03:52:37;7.80;96.60
71672;DHT22;67659;45.554;11.812;2023-02-21T03:55:04;7.90;97.00
71672;DHT22;67659;45.554;11.812;2023-02-21T03:57:30;8.00;96.80
71672;DHT22;67659;45.554;11.812;2023-02-21T03:59:56;8.50;97.70
71672;DHT22;67659;45.554;11.812;2023-02-21T04:02:22;8.70;97.70
71672;DHT22;67659;45.554;11.812;2023-02-21T04:04:48;8.70;97.70
71672;DHT22;67659;45.554;11.812;2023-02-21T04:07:17;8.80;97.40
71672;DHT22;67659;45.554;11.812;2023-02-21T04:09:43;8.80;97.30
71672;DHT22;67659;45.554;11.812;2023-02-21T04:12:09;8.80;97.30
71672;DHT22;67659;45.554;11.812;2023-02-21T04:14:35;8.60;97.30
71672;DHT22;67659;45.554;11.812;2023-02-21T04:17:01;8.80;97.30
71672;DHT22;67659;45.554;11.812;2023-02-21T04:19:26;8.80;97.60
71672;DHT22;67659;45.554;11.812;2023-02-21T04:21:52;8.80;97.40
71672;DHT22;67659;45.554;11.812;2023-02-21T04:24:18;8.80;97.30
71672;DHT22;67659;45.554;11.812;2023-02-21T04:26:43;8.60;97.30
71672;DHT22;67659;45.554;11.812;2023-02-21T04:29:10;8.60;96.90
71672;DHT22;67659;45.554;11.812;2023-02-21T04:31:36;8.40;96.90
71672;DHT22;67659;45.554;11.812;2023-02-21T04:34:02;8.40;97.00
71672;DHT22;67659;45.554;11.812;2023-02-21T04:36:27;8.30;96.80
71672;DHT22;67659;45.554;11.812;2023-02-21T04:38:53;8.20;96.80
71672;DHT22;67659;45.554;11.812;2023-02-21T04:41:19;8.10;96.90
71672;DHT22;67659;45.554;11.812;2023-02-21T04:43:45;7.90;96.90
71672;DHT22;67659;45.554;11.812;2023-02-21T04:46:13;8.10;97.00
71672;DHT22;67659;45.554;11.812;2023-02-21T04:48:45;7.80;98.30
71672;DHT22;67659;45.554;11.812;2023-02-21T04:51:12;7.80;98.00
71672;DHT22;67659;45.554;11.812;2023-02-21T04:53:38;7.70;97.60
71672;DHT22;67659;45.554;11.812;2023-02-21T04:56:04;7.80;97.40
71672;DHT22;67659;45.554;11.812;2023-02-21T04:58:30;7.70;97.30
71672;DHT22;67659;45.554;11.812;2023-02-21T05:00:55;7.80;97.10
71672;DHT22;67659;45.554;11.812;2023-02-21T05:03:21;7.70;96.90
71672;DHT22;67659;45.554;11.812;2023-02-21T05:05:49;7.50;97.60
71672;DHT22;67659;45.554;11.812;2023-02-21T05:08:14;7.50;97.90
71672;DHT22;67659;45.554;11.812;2023-02-21T05:10:40;7.70;97.60
71672;DHT22;67659;45.554;11.812;2023-02-21T05:13:06;7.60;98.50
71672;DHT22;67659;45.554;11.812;2023-02-21T05:15:32;7.70;98.30
71672;DHT22;67659;45.554;11.812;2023-02-21T05:17:57;7.70;98.10
71672;DHT22;67659;45.554;11.812;2023-02-21T05:20:23;7.80;97.60
71672;DHT22;67659;45.554;11.812;2023-02-21T05:22:49;7.70;97.70
71672;DHT22;67659;45.554;11.812;2023-02-21T05:25:19;7.80;97.60
71672;DHT22;67659;45.554;11.812;2023-02-21T05:27:45;7.70;97.60
71672;DHT22;67659;45.554;11.812;2023-02-21T05:30:13;7.90;97.80
71672;DHT22;67659;45.554;11.812;2023-02-21T05:32:39;7.60;97.90
71672;DHT22;67659;45.554;11.812;2023-02-21T05:35:06;7.70;97.90
71672;DHT22;67659;45.554;11.812;2023-02-21T05:37:32;7.60;97.70
71672;DHT22;67659;45.554;11.812;2023-02-21T05:39:58;7.60;97.50
71672;DHT22;67659;45.554;11.812;2023-02-21T05:42:24;7.40;97.60
71672;DHT22;67659;45.554;11.812;2023-02-21T05:44:50;7.50;97.30
71672;DHT22;67659;45.554;11.812;2023-02-21T05:47:15;7.40;97.30
71672;DHT22;67659;45.554;11.812;2023-02-21T05:49:42;7.40;97.70
71672;DHT22;67659;45.554;11.812;2023-02-21T05:52:12;7.30;97.90
71672;DHT22;67659;45.554;11.812;2023-02-21T05:54:38;7.30;97.70
71672;DHT22;67659;45.554;11.812;2023-02-21T05:57:03;7.40;97.30
71672;DHT22;67659;45.554;11.812;2023-02-21T05:59:29;7.20;97.40
71672;DHT22;67659;45.554;11.812;2023-02-21T06:01:55;7.30;97.30
71672;DHT22;67659;45.554;11.812;2023-02-21T06:04:22;7.20;97.40
71672;DHT22;67659;45.554;11.812;2023-02-21T06:06:48;7.30;97.10
71672;DHT22;67659;45.554;11.812;2023-02-21T06:09:16;6.90;97.70
71672;DHT22;67659;45.554;11.812;2023-02-21T06:11:44;6.80;98.60
71672;DHT22;67659;45.554;11.812;2023-02-21T06:14:16;6.90;98.70
71672;DHT22;67659;45.554;11.812;2023-02-21T06:16:43;7.10;98.70
71672;DHT22;67659;45.554;11.812;2023-02-21T06:19:11;7.20;98.30
71672;DHT22;67659;45.554;11.812;2023-02-21T06:21:38;7.30;98.00
71672;DHT22;67659;45.554;11.812;2023-02-21T06:24:06;7.30;98.90
71672;DHT22;67659;45.554;11.812;2023-02-21T06:26:33;7.40;98.80
71672;DHT22;67659;45.554;11.812;2023-02-21T06:29:02;7.50;98.30
71672;DHT22;67659;45.554;11.812;2023-02-21T06:31:28;7.80;98.60
71672;DHT22;67659;45.554;11.812;2023-02-21T06:33:54;7.90;98.20
71672;DHT22;67659;45.554;11.812;2023-02-21T06:36:22;8.10;98.10
71672;DHT22;67659;45.554;11.812;2023-02-21T06:38:50;8.10;98.40
71672;DHT22;67659;45.554;11.812;2023-02-21T06:41:22;8.40;98.20
71672;DHT22;67659;45.554;11.812;2023-02-21T06:43:52;8.50;99.00
71672;DHT22;67659;45.554;11.812;2023-02-21T06:46:20;8.50;99.10
71672;DHT22;67659;45.554;11.812;2023-02-21T06:48:46;8.70;98.80
71672;DHT22;67659;45.554;11.812;2023-02-21T06:51:12;8.70;99.00
71672;DHT22;67659;45.554;11.812;2023-02-21T06:53:39;8.80;99.80
71672;DHT22;67659;45.554;11.812;2023-02-21T06:56:06;9.00;99.90
71672;DHT22;67659;45.554;11.812;2023-02-21T06:58:31;9.00;99.90
71672;DHT22;67659;45.554;11.812;2023-02-21T07:00:57;9.00;99.90
71672;DHT22;67659;45.554;11.812;2023-02-21T07:03:23;8.90;99.90
71672;DHT22;67659;45.554;11.812;2023-02-21T07:05:49;9.10;99.90
71672;DHT22;67659;45.554;11.812;2023-02-21T07:08:15;9.10;99.90
71672;DHT22;67659;45.554;11.812;2023-02-21T07:10:41;9.30;99.90
71672;DHT22;67659;45.554;11.812;2023-02-21T07:13:07;9.20;99.90
71672;DHT22;67659;45.554;11.812;2023-02-21T07:15:32;9.20;99.90
71672;DHT22;67659;45.554;11.812;2023-02-21T07:17:58;9.30;99.90
71672;DHT22;67659;45.554;11.812;2023-02-21T07:20:25;9.30;99.90
71672;DHT22;67659;45.554;11.812;2023-02-21T07:22:52;9.30;99.90
71672;DHT22;67659;45.554;11.812;2023-02-21T07:25:20;9.30;99.90
71672;DHT22;67659;45.554;11.812;2023-02-21T07:27:48;9.50;99.90
71672;DHT22;67659;45.554;11.812;2023-02-21T07:30:14;9.50;99.90
71672;DHT22;67659;45.554;11.812;2023-02-21T07:32:41;9.50;99.90
71672;DHT22;67659;45.554;11.812;2023-02-21T07:35:07;9.70;99.90
71672;DHT22;67659;45.554;11.812;2023-02-21T07:37:33;9.70;99.90
71672;DHT22;67659;45.554;11.812;2023-02-21T07:39:59;9.70;99.90
71672;DHT22;67659;45.554;11.812;2023-02-21T07:42:25;9.80;99.90
71672;DHT22;67659;45.554;11.812;2023-02-21T07:44:56;9.90;99.90
71672;DHT22;67659;45.554;11.812;2023-02-21T07:47:23;9.90;99.90
71672;DHT22;67659;45.554;11.812;2023-02-21T07:49:49;10.10;99.90
71672;DHT22;67659;45.554;11.812;2023-02-21T07:52:16;10.10;99.90
71672;DHT22;67659;45.554;11.812;2023-02-21T07:54:42;10.20;99.90
71672;DHT22;67659;45.554;11.812;2023-02-21T07:57:08;10.20;99.90
71672;DHT22;67659;45.554;11.812;2023-02-21T07:59:33;10.20;99.90
71672;DHT22;67659;45.554;11.812;2023-02-21T08:01:59;10.20;99.90
71672;DHT22;67659;45.554;11.812;2023-02-21T08:04:26;10.30;99.90
71672;DHT22;67659;45.554;11.812;2023-02-21T08:06:57;10.40;99.90
71672;DHT22;67659;45.554;11.812;2023-02-21T08:09:23;10.40;99.90
71672;DHT22;67659;45.554;11.812;2023-02-21T08:11:48;10.50;99.90
71672;DHT22;67659;45.554;11.812;2023-02-21T08:14:14;10.60;99.90
71672;DHT22;67659;45.554;11.812;2023-02-21T08:16:40;10.60;99.90
71672;DHT22;67659;45.554;11.812;2023-02-21T08:19:06;10.70;99.90
71672;DHT22;67659;45.554;11.812;2023-02-21T08:21:34;10.60;99.90
71672;DHT22;67659;45.554;11.812;2023-02-21T08:24:00;10.70;99.90
71672;DHT22;67659;45.554;11.812;2023-02-21T08:26:25;10.80;99.90
71672;DHT22;67659;45.554;11.812;2023-02-21T08:28:51;10.90;99.90
71672;DHT22;67659;45.554;11.812;2023-02-21T08:31:17;11.00;99.90
71672;DHT22;67659;45.554;11.812;2023-02-21T08:33:44;11.00;99.90
71672;DHT22;67659;45.554;11.812;2023-02-21T08:36:10;11.10;99.90
71672;DHT22;67659;45.554;11.812;2023-02-21T08:38:37;11.20;99.90
71672;DHT22;67659;45.554;11.812;2023-02-21T08:41:02;11.20;99.90
71672;DHT22;67659;45.554;11.812;2023-02-21T08:43:31;11.40;99.90
71672;DHT22;67659;45.554;11.812;2023-02-21T08:45:57;11.50;99.90
71672;DHT22;67659;45.554;11.812;2023-02-21T08:48:23;11.70;99.90
71672;DHT22;67659;45.554;11.812;2023-02-21T08:50:49;11.60;99.90
71672;DHT22;67659;45.554;11.812;2023-02-21T08:53:16;11.70;99.90
71672;DHT22;67659;45.554;11.812;2023-02-21T08:55:42;11.70;99.70
71672;DHT22;67659;45.554;11.812;2023-02-21T08:58:09;11.90;99.90
71672;DHT22;67659;45.554;11.812;2023-02-21T09:00:36;12.00;99.90
71672;DHT22;67659;45.554;11.812;2023-02-21T09:03:01;11.90;99.80
71672;DHT22;67659;45.554;11.812;2023-02-21T09:05:29;12.30;99.80
71672;DHT22;67659;45.554;11.812;2023-02-21T09:07:56;12.40;99.80
71672;DHT22;67659;45.554;11.812;2023-02-21T09:10:33;12.60;99.60
71672;DHT22;67659;45.554;11.812;2023-02-21T09:13:00;12.50;99.60
71672;DHT22;67659;45.554;11.812;2023-02-21T09:15:26;12.60;98.90
71672;DHT22;67659;45.554;11.812;2023-02-21T09:17:51;12.50;99.20
71672;DHT22;67659;45.554;11.812;2023-02-21T09:20:22;12.50;99.30
71672;DHT22;67659;45.554;11.812;2023-02-21T09:22:48;12.60;99.30
71672;DHT22;67659;45.554;11.812;2023-02-21T09:25:16;12.60;99.80
71672;DHT22;67659;45.554;11.812;2023-02-21T09:27:42;12.60;99.50
71672;DHT22;67659;45.554;11.812;2023-02-21T09:30:17;12.70;98.70
71672;DHT22;67659;45.554;11.812;2023-02-21T09:32:43;12.60;99.10
71672;DHT22;67659;45.554;11.812;2023-02-21T09:35:10;12.60;99.50
71672;DHT22;67659;45.554;11.812;2023-02-21T09:37:39;12.60;99.40
71672;DHT22;67659;45.554;11.812;2023-02-21T09:42:43;12.60;99.90
71672;DHT22;67659;45.554;11.812;2023-02-21T09:45:14;12.60;99.70
71672;DHT22;67659;45.554;11.812;2023-02-21T09:47:40;12.50;99.90
71672;DHT22;67659;45.554;11.812;2023-02-21T09:50:13;12.70;99.90
71672;DHT22;67659;45.554;11.812;2023-02-21T09:52:39;12.90;98.30
71672;DHT22;67659;45.554;11.812;2023-02-21T09:55:14;12.80;98.40
71672;DHT22;67659;45.554;11.812;2023-02-21T09:57:44;12.80;99.00
71672;DHT22;67659;45.554;11.812;2023-02-21T10:00:43;12.80;98.80
71672;DHT22;67659;45.554;11.812;2023-02-21T10:08:55;13.10;98.20
71672;DHT22;67659;45.554;11.812;2023-02-21T10:19:40;13.30;98.40
71672;DHT22;67659;45.554;11.812;2023-02-21T10:22:21;13.50;97.80
71672;DHT22;67659;45.554;11.812;2023-02-21T10:24:49;13.50;97.50
71672;DHT22;67659;45.554;11.812;2023-02-21T10:27:21;13.40;98.00
71672;DHT22;67659;45.554;11.812;2023-02-21T10:30:07;13.50;98.00
71672;DHT22;67659;45.554;11.812;2023-02-21T10:32:35;13.60;98.20
71672;DHT22;67659;45.554;11.812;2023-02-21T10:35:02;13.70;97.80
71672;DHT22;67659;45.554;11.812;2023-02-21T10:37:39;13.80;97.80
71672;DHT22;67659;45.554;11.812;2023-02-21T10:42:41;14.20;97.20
71672;DHT22;67659;45.554;11.812;2023-02-21T10:45:08;14.30;96.60
71672;DHT22;67659;45.554;11.812;2023-02-21T10:47:47;14.20;96.90
71672;DHT22;67659;45.554;11.812;2023-02-21T10:50:15;14.30;96.50
71672;DHT22;67659;45.554;11.812;2023-02-21T10:52:49;14.60;96.20
71672;DHT22;67659;45.554;11.812;2023-02-21T10:55:20;14.60;95.90
71672;DHT22;67659;45.554;11.812;2023-02-21T10:57:53;14.80;95.20
71672;DHT22;67659;45.554;11.812;2023-02-21T11:00:42;14.80;95.70
71672;DHT22;67659;45.554;11.812;2023-02-21T11:03:21;15.10;94.80
71672;DHT22;67659;45.554;11.812;2023-02-21T11:05:49;15.50;92.50
71672;DHT22;67659;45.554;11.812;2023-02-21T11:08:42;15.60;92.00
71672;DHT22;67659;45.554;11.812;2023-02-21T11:11:09;15.80;91.50
71672;DHT22;67659;45.554;11.812;2023-02-21T11:13:36;15.70;91.10
71672;DHT22;67659;45.554;11.812;2023-02-21T11:16:16;15.90;91.20
71672;DHT22;67659;45.554;11.812;2023-02-21T11:18:43;16.20;90.90
71672;DHT22;67659;45.554;11.812;2023-02-21T11:21:18;16.20;90.70
71672;DHT22;67659;45.554;11.812;2023-02-21T11:23:55;16.50;89.50
71672;DHT22;67659;45.554;11.812;2023-02-21T11:26:28;16.50;88.90
71672;DHT22;67659;45.554;11.812;2023-02-21T11:29:09;16.60;89.60
71672;DHT22;67659;45.554;11.812;2023-02-21T11:31:36;16.70;89.20
71672;DHT22;67659;45.554;11.812;2023-02-21T11:34:04;16.90;89.10
71672;DHT22;67659;45.554;11.812;2023-02-21T11:36:33;17.30;88.50
71672;DHT22;67659;45.554;11.812;2023-02-21T11:39:04;17.30;88.20
71672;DHT22;67659;45.554;11.812;2023-02-21T11:41:57;17.30;88.20
71672;DHT22;67659;45.554;11.812;2023-02-21T11:47:07;17.80;87.40
71672;DHT22;67659;45.554;11.812;2023-02-21T11:52:17;18.00;87.00
71672;DHT22;67659;45.554;11.812;2023-02-21T11:54:45;18.20;85.80
71672;DHT22;67659;45.554;11.812;2023-02-21T12:09:33;19.80;62.90
71672;DHT22;67659;45.554;11.812;2023-02-21T12:14:50;20.90;58.50
71672;DHT22;67659;45.554;11.812;2023-02-21T12:20:38;20.20;58.10
71672;DHT22;67659;45.554;11.812;2023-02-21T12:23:18;20.00;57.60
71672;DHT22;67659;45.554;11.812;2023-02-21T12:26:18;19.80;57.10
71672;DHT22;67659;45.554;11.812;2023-02-21T12:32:14;21.10;55.10
71672;DHT22;67659;45.554;11.812;2023-02-21T12:34:57;21.30;53.10
71672;DHT22;67659;45.554;11.812;2023-02-21T12:38:20;21.80;52.20
71672;DHT22;67659;45.554;11.812;2023-02-21T12:46:30;20.40;55.10
71672;DHT22;67659;45.554;11.812;2023-02-21T12:51:27;20.40;55.60
71672;DHT22;67659;45.554;11.812;2023-02-21T12:53:59;20.10;56.20
71672;DHT22;67659;45.554;11.812;2023-02-21T13:04:59;20.40;55.60
71672;DHT22;67659;45.554;11.812;2023-02-21T13:07:32;20.50;56.30
71672;DHT22;67659;45.554;11.812;2023-02-21T13:10:11;20.00;56.10
71672;DHT22;67659;45.554;11.812;2023-02-21T13:13:06;19.20;57.40
71672;DHT22;67659;45.554;11.812;2023-02-21T13:15:35;18.60;59.50
71672;DHT22;67659;45.554;11.812;2023-02-21T13:18:22;18.30;61.60
71672;DHT22;67659;45.554;11.812;2023-02-21T13:20:54;18.00;65.10
71672;DHT22;67659;45.554;11.812;2023-02-21T13:26:55;17.40;67.00
71672;DHT22;67659;45.554;11.812;2023-02-21T13:29:29;17.20;70.80
71672;DHT22;67659;45.554;11.812;2023-02-21T13:32:01;17.10;72.10
71672;DHT22;67659;45.554;11.812;2023-02-21T13:34:30;17.20;72.90
71672;DHT22;67659;45.554;11.812;2023-02-21T13:37:06;17.30;72.50
71672;DHT22;67659;45.554;11.812;2023-02-21T13:39:34;17.40;72.50
71672;DHT22;67659;45.554;11.812;2023-02-21T13:42:14;17.50;72.10
71672;DHT22;67659;45.554;11.812;2023-02-21T13:44:44;17.00;72.90
71672;DHT22;67659;45.554;11.812;2023-02-21T13:47:17;16.80;74.00
71672;DHT22;67659;45.554;11.812;2023-02-21T13:49:56;16.80;74.90
71672;DHT22;67659;45.554;11.812;2023-02-21T13:57:47;16.60;76.70
71672;DHT22;67659;45.554;11.812;2023-02-21T14:05:20;15.90;82.50
71672;DHT22;67659;45.554;11.812;2023-02-21T14:07:49;15.80;83.90
71672;DHT22;67659;45.554;11.812;2023-02-21T14:13:06;15.90;83.40
71672;DHT22;67659;45.554;11.812;2023-02-21T14:15:46;15.90;83.00
71672;DHT22;67659;45.554;11.812;2023-02-21T14:18:24;15.90;83.80
71672;DHT22;67659;45.554;11.812;2023-02-21T14:20:53;15.80;85.00
71672;DHT22;67659;45.554;11.812;2023-02-21T14:23:22;15.70;85.20
71672;DHT22;67659;45.554;11.812;2023-02-21T14:26:01;15.70;85.80
71672;DHT22;67659;45.554;11.812;2023-02-21T14:31:50;15.40;89.90
71672;DHT22;67659;45.554;11.812;2023-02-21T14:34:24;15.40;89.80
71672;DHT22;67659;45.554;11.812;2023-02-21T14:36:53;15.40;91.10
71672;DHT22;67659;45.554;11.812;2023-02-21T14:39:22;15.40;90.70
71672;DHT22;67659;45.554;11.812;2023-02-21T14:42:20;15.40;91.00
71672;DHT22;67659;45.554;11.812;2023-02-21T14:50:27;15.40;91.80
71672;DHT22;67659;45.554;11.812;2023-02-21T14:53:22;15.40;92.40
71672;DHT22;67659;45.554;11.812;2023-02-21T15:09:36;15.00;94.00
71672;DHT22;67659;45.554;11.812;2023-02-21T15:12:08;14.90;94.10
71672;DHT22;67659;45.554;11.812;2023-02-21T15:14:48;14.90;94.30
71672;DHT22;67659;45.554;11.812;2023-02-21T15:17:21;14.90;94.70
71672;DHT22;67659;45.554;11.812;2023-02-21T15:20:02;14.80;94.90
71672;DHT22;67659;45.554;11.812;2023-02-21T15:22:30;14.90;94.80
71672;DHT22;67659;45.554;11.812;2023-02-21T15:25:16;14.80;94.60
71672;DHT22;67659;45.554;11.812;2023-02-21T15:30:58;14.80;94.90
71672;DHT22;67659;45.554;11.812;2023-02-21T15:35:36;14.70;94.60
71672;DHT22;67659;45.554;11.812;2023-02-21T15:38:09;14.80;94.60
71672;DHT22;67659;45.554;11.812;2023-02-21T15:40:36;14.70;94.70
71672;DHT22;67659;45.554;11.812;2023-02-21T15:43:03;14.70;95.00
71672;DHT22;67659;45.554;11.812;2023-02-21T15:45:39;14.50;95.40
71672;DHT22;67659;45.554;11.812;2023-02-21T15:48:06;14.40;95.90
71672;DHT22;67659;45.554;11.812;2023-02-21T15:50:38;14.40;96.00
71672;DHT22;67659;45.554;11.812;2023-02-21T15:53:23;14.50;95.90
71672;DHT22;67659;45.554;11.812;2023-02-21T15:55:51;14.30;96.00
71672;DHT22;67659;45.554;11.812;2023-02-21T15:58:23;14.50;95.80
71672;DHT22;67659;45.554;11.812;2023-02-21T16:01:05;14.50;95.60
71672;DHT22;67659;45.554;11.812;2023-02-21T16:03:38;14.40;96.00
71672;DHT22;67659;45.554;11.812;2023-02-21T16:06:26;14.50;95.80
71672;DHT22;67659;45.554;11.812;2023-02-21T16:14:43;14.30;96.40
71672;DHT22;67659;45.554;11.812;2023-02-21T16:17:18;14.20;96.70
71672;DHT22;67659;45.554;11.812;2023-02-21T16:19:50;14.20;96.70
71672;DHT22;67659;45.554;11.812;2023-02-21T16:22:31;14.20;96.80
71672;DHT22;67659;45.554;11.812;2023-02-21T16:27:41;14.20;96.90
71672;DHT22;67659;45.554;11.812;2023-02-21T16:30:13;14.20;96.80
71672;DHT22;67659;45.554;11.812;2023-02-21T16:32:41;14.10;96.80
71672;DHT22;67659;45.554;11.812;2023-02-21T16:35:19;14.20;96.90
71672;DHT22;67659;45.554;11.812;2023-02-21T16:37:47;14.10;97.30
71672;DHT22;67659;45.554;11.812;2023-02-21T16:40:20;14.10;97.00
71672;DHT22;67659;45.554;11.812;2023-02-21T16:42:48;14.10;97.20
71672;DHT22;67659;45.554;11.812;2023-02-21T16:45:14;14.00;97.20
71672;DHT22;67659;45.554;11.812;2023-02-21T16:47:40;14.00;97.20
71672;DHT22;67659;45.554;11.812;2023-02-21T16:50:35;14.10;97.10
71672;DHT22;67659;45.554;11.812;2023-02-21T16:53:01;14.10;97.30
71672;DHT22;67659;45.554;11.812;2023-02-21T16:55:28;14.00;97.50
71672;DHT22;67659;45.554;11.812;2023-02-21T16:57:58;14.00;97.50
71672;DHT22;67659;45.554;11.812;2023-02-21T17:00:24;13.90;97.50
71672;DHT22;67659;45.554;11.812;2023-02-21T17:02:51;13.90;97.60
71672;DHT22;67659;45.554;11.812;2023-02-21T17:05:20;13.90;97.30
71672;DHT22;67659;45.554;11.812;2023-02-21T17:07:50;14.00;97.50
71672;DHT22;67659;45.554;11.812;2023-02-21T17:10:18;14.00;97.40
71672;DHT22;67659;45.554;11.812;2023-02-21T17:12:44;14.00;97.30
71672;DHT22;67659;45.554;11.812;2023-02-21T17:15:11;14.00;97.40
71672;DHT22;67659;45.554;11.812;2023-02-21T17:17:39;13.90;97.40
71672;DHT22;67659;45.554;11.812;2023-02-21T17:20:14;14.00;97.30
71672;DHT22;67659;45.554;11.812;2023-02-21T17:22:40;14.00;97.50
71672;DHT22;67659;45.554;11.812;2023-02-21T17:25:06;14.00;97.60
71672;DHT22;67659;45.554;11.812;2023-02-21T17:27:33;13.90;97.70
71672;DHT22;67659;45.554;11.812;2023-02-21T17:29:59;13.80;97.90
71672;DHT22;67659;45.554;11.812;2023-02-21T17:32:24;13.80;97.80
71672;DHT22;67659;45.554;11.812;2023-02-21T17:34:51;13.80;98.00
71672;DHT22;67659;45.554;11.812;2023-02-21T17:37:17;13.70;98.10
71672;DHT22;67659;45.554;11.812;2023-02-21T17:39:43;13.60;98.20
71672;DHT22;67659;45.554;11.812;2023-02-21T17:42:09;13.60;98.30
71672;DHT22;67659;45.554;11.812;2023-02-21T17:44:34;13.60;98.60
71672;DHT22;67659;45.554;11.812;2023-02-21T17:47:02;13.70;98.60
71672;DHT22;67659;45.554;11.812;2023-02-21T17:49:32;13.70;98.60
71672;DHT22;67659;45.554;11.812;2023-02-21T17:51:58;13.70;98.50
71672;DHT22;67659;45.554;11.812;2023-02-21T17:54:24;13.70;98.30
71672;DHT22;67659;45.554;11.812;2023-02-21T17:56:50;13.70;98.30
71672;DHT22;67659;45.554;11.812;2023-02-21T17:59:17;13.80;98.30
71672;DHT22;67659;45.554;11.812;2023-02-21T18:01:43;13.70;98.10
71672;DHT22;67659;45.554;11.812;2023-02-21T18:04:09;13.80;98.00
71672;DHT22;67659;45.554;11.812;2023-02-21T18:06:35;13.80;97.80
71672;DHT22;67659;45.554;11.812;2023-02-21T18:09:02;13.80;97.70
71672;DHT22;67659;45.554;11.812;2023-02-21T18:11:28;13.80;98.10
71672;DHT22;67659;45.554;11.812;2023-02-21T18:13:55;13.60;98.30
71672;DHT22;67659;45.554;11.812;2023-02-21T18:16:22;13.50;98.70
71672;DHT22;67659;45.554;11.812;2023-02-21T18:18:48;13.50;98.60
71672;DHT22;67659;45.554;11.812;2023-02-21T18:21:15;13.60;98.50
71672;DHT22;67659;45.554;11.812;2023-02-21T18:23:45;13.50;98.60
71672;DHT22;67659;45.554;11.812;2023-02-21T18:26:11;13.50;98.80
71672;DHT22;67659;45.554;11.812;2023-02-21T18:28:37;13.60;98.70
71672;DHT22;67659;45.554;11.812;2023-02-21T18:31:04;13.70;98.60